Etihad Airways Virtual Airport Information Service

Jeddah King Abdulaziz International Airport

ICAO: OEJN Country: Saudi Arabia
Latitude: 21.6796 Longitude: 39.1565
Latest Arrival : ETDJUMP (OERK-OEJN) Latest Departure : ETDJUMP (OEJN-OEDF)


WX CaptureLIVE
Data provided by noaa.gov | Recorded at 15:58:50

METAR : OEJN 191500Z 31014KT CAVOK 25/13 Q1013 NOSIG

TAF : OEJN 191100Z 1912/2018 33014KT CAVOK BECMG 1919/1921 03010KT


Runway Data for OEJN
Data provided by openaviationdata.com

Runway ID Mag Var Hdg Length Elevation Surface ILS Freq ILS Id ILS Slope

Jeddah King Abdulaziz International Airport, Saudi Arabia
Use only for reference purposes